Hokusei Maru — JD3263 — position and weather

sailwx.info

Track history (hours):
 
Tides and Currents Weather Stations Pressure Air Temp Water Temp Dewpoint Dewpoint Depression Visibility Wind Speed Wind Dir Waves Ship Positions

Hokusei Maru

Last reported at 2018-Feb-25 05:10 UTC. Time now 2018-Feb-25 09:57 UTC.
Position N 34°43' E 137°11'.

Length 83 m; draft 4.6 m.

Type: Cargo ship. MMSI: 431003032.

Date/timePositionNaut miles runAvg speedWind from/ knotsBaromVisibWave heightAir tempDewpointWater temp
2018-Feb-25 05:10N 34°43' E 137°11'312.2
2018-Feb-25 04:54N 34°44' E 137°15'5 0.6
2018-Feb-24 20:59N 34°42' E 137°09'9 8.0
2018-Feb-24 19:49N 34°38' E 136°59'5 9.6
2018-Feb-24 19:17N 34°33' E 137°02'611.1
2018-Feb-24 18:42N 34°34' E 137°10'311.6
2018-Feb-24 18:29N 34°34' E 137°13'4811.0
2018-Feb-24 14:04N 34°33' E 138°11'210.4
2018-Feb-24 13:54N 34°33' E 138°13'410.7
2018-Feb-24 13:30N 34°33' E 138°19'711.1
2018-Feb-24 12:50N 34°34' E 138°27'410.9
2018-Feb-24 12:27N 34°35' E 138°33'510.3
2018-Feb-24 12:00N 34°36' E 138°38'6 9.2
2018-Feb-24 11:23N 34°36' E 138°45'3 8.2
2018-Feb-24 11:00N 34°35' E 138°49'4 7.4
2018-Feb-24 10:30N 34°36' E 138°53'5 8.7
2018-Feb-24 09:56N 34°38' E 138°59'610.6
2018-Feb-24 09:20N 34°43' E 139°03'511.2
2018-Feb-24 08:53N 34°47' E 139°06'1510.5
2018-Feb-24 07:30N 34°59' E 139°18'6 9.7
2018-Feb-24 06:54N 35°01' E 139°24'4 9.9
2018-Feb-24 06:29N 35°03' E 139°29'510.3
2018-Feb-24 06:00N 35°05' E 139°34'611.2
2018-Feb-24 05:30N 35°07' E 139°40'611.0
2018-Feb-24 04:59N 35°11' E 139°45'511.2
2018-Feb-24 04:29N 35°17' E 139°45'611.6
2018-Feb-24 04:01N 35°22' E 139°42'510.8
2018-Feb-24 03:30N 35°26' E 139°46'611.6
2018-Feb-24 03:00N 35°30' E 139°52'4 2.8
2018-Feb-24 01:32N 35°28' E 139°57'0 0.7
2018-Feb-24 01:30N 35°28' E 139°57'1 2.2
2018-Feb-24 00:50N 35°27' E 139°58'0 0.0
2018-Feb-24 00:20N 35°27' E 139°58'0 0.0
2018-Feb-23 23:59N 35°27' E 139°58'0 0.0
2018-Feb-23 23:26N 35°27' E 139°58'2 3.7
2018-Feb-23 23:00N 35°28' E 139°57'0 0.5
2018-Feb-23 22:21N 35°28' E 139°56'0 0.0
2018-Feb-23 22:00N 35°28' E 139°56'5 9.7
2018-Feb-23 21:30N 35°27' E 139°51'612.4
2018-Feb-23 21:00N 35°23' E 139°46'611.4
2018-Feb-23 20:30N 35°17' E 139°45'611.5
2018-Feb-23 20:01N 35°11' E 139°46'612.3
2018-Feb-23 19:30N 35°06' E 139°42'611.9
2018-Feb-23 19:00N 35°02' E 139°37'610.8
2018-Feb-23 18:29N 34°57' E 139°33'1912.1
2018-Feb-23 16:55N 34°46' E 139°14'1511.9
2018-Feb-23 15:41N 34°37' E 138°60'311.3
2018-Feb-23 15:27N 34°36' E 138°57'9110.3
2018-Feb-23 06:37N 34°41' E 137°07'212.0
2018-Feb-23 06:30N 34°42' E 137°09'9 9.1
2018-Feb-23 05:33N 34°43' E 137°19'0 0.0
2018-Feb-23 05:29N 34°43' E 137°19'12 0.9
2018-Feb-22 15:55N 34°34' E 137°10'4811.2
2018-Feb-22 11:41N 34°34' E 138°08'311.2
2018-Feb-22 11:27N 34°34' E 138°11'1111.9
2018-Feb-22 10:30N 34°34' E 138°25'611.9
2018-Feb-22 10:00N 34°35' E 138°32'612.5
2018-Feb-22 09:30N 34°35' E 138°39'712.5
2018-Feb-22 08:59N 34°35' E 138°47'611.7
2018-Feb-22 08:31N 34°36' E 138°54'811.9
2018-Feb-22 07:52N 34°41' E 139°01'512.4
2018-Feb-22 07:29N 34°45' E 139°04'1711.4
2018-Feb-22 06:01N 34°58' E 139°16'111.2
2018-Feb-22 05:57N 34°59' E 139°17'611.6
2018-Feb-22 05:28N 35°01' E 139°23'611.6
2018-Feb-22 04:57N 35°04' E 139°30'512.2
2018-Feb-22 04:30N 35°06' E 139°36'612.6
2018-Feb-22 04:00N 35°08' E 139°43'612.1
2018-Feb-22 03:31N 35°14' E 139°46'612.4
2018-Feb-22 03:00N 35°19' E 139°43'611.3
2018-Feb-22 02:30N 35°25' E 139°44'612.2
2018-Feb-22 02:00N 35°28' E 139°50'611.1
2018-Feb-22 01:31N 35°29' E 139°57'2 3.5
2018-Feb-22 00:59N 35°27' E 139°58'0 0.0
2018-Feb-22 00:28N 35°27' E 139°58'0 0.0
2018-Feb-21 23:58N 35°27' E 139°58'0 0.0
2018-Feb-21 23:28N 35°27' E 139°58'2 4.8
2018-Feb-21 23:01N 35°28' E 139°56'0 0.1
2018-Feb-21 22:20N 35°28' E 139°56'0 0.1
2018-Feb-21 21:56N 35°28' E 139°56'0 0.1
2018-Feb-21 21:05N 35°28' E 139°56'0 0.0
2018-Feb-21 20:55N 35°28' E 139°56'0 0.1
2018-Feb-21 20:19N 35°28' E 139°56'0 0.0
2018-Feb-21 19:49N 35°28' E 139°56'0 0.0
2018-Feb-21 19:25N 35°28' E 139°56'0 0.0
2018-Feb-21 18:04N 35°28' E 139°56'0 0.0
2018-Feb-21 17:55N 35°28' E 139°56'0 0.0
2018-Feb-21 17:28N 35°28' E 139°56'0 0.0
2018-Feb-21 16:58N 35°28' E 139°56'0 0.0
2018-Feb-21 16:28N 35°28' E 139°56'0 0.1
2018-Feb-21 15:58N 35°28' E 139°56'0 0.0
2018-Feb-21 15:28N 35°28' E 139°56'0 0.0
2018-Feb-21 14:52N 35°28' E 139°56'0 0.0
2018-Feb-21 14:19N 35°28' E 139°56'0 0.0
2018-Feb-21 13:58N 35°28' E 139°56'0 0.0
2018-Feb-21 13:28N 35°28' E 139°56'0 0.0
2018-Feb-21 12:58N 35°28' E 139°56'0 0.0
2018-Feb-21 12:19N 35°28' E 139°56'0 0.0
2018-Feb-21 11:49N 35°28' E 139°56'0 0.0
2018-Feb-21 11:16N 35°28' E 139°56'0 0.0
2018-Feb-21 10:58N 35°28' E 139°56'0 0.0
2018-Feb-21 10:28N 35°28' E 139°56'0 0.0
2018-Feb-21 09:58N 35°28' E 139°56'0 0.0
2018-Feb-21 09:25N 35°28' E 139°56'0 0.0
2018-Feb-21 08:52N 35°28' E 139°56'0 0.1
2018-Feb-21 08:22N 35°28' E 139°56'0 0.1
2018-Feb-21 07:55N 35°28' E 139°56'0 0.1
2018-Feb-21 07:19N 35°28' E 139°56'0 0.1
2018-Feb-21 06:46N 35°28' E 139°56'0 0.0
2018-Feb-21 04:34N 35°28' E 139°56'0 0.0
2018-Feb-21 04:04N 35°28' E 139°56'0 0.0
2018-Feb-21 03:37N 35°28' E 139°56'0 0.0
2018-Feb-21 03:22N 35°28' E 139°56'0 0.0
2018-Feb-21 02:04N 35°28' E 139°56'0 0.0
2018-Feb-21 01:55N 35°28' E 139°56'0 0.0
2018-Feb-21 01:26N 35°28' E 139°56'4 8.4
2018-Feb-21 00:59N 35°28' E 139°51'611.9
2018-Feb-21 00:30N 35°24' E 139°46'611.3
2018-Feb-21 00:00N 35°18' E 139°44'611.7
2018-Feb-20 23:29N 35°13' E 139°47'611.5
2018-Feb-20 22:59N 35°07' E 139°44'4010.9
2018-Feb-20 19:17N 34°42' E 139°06'311.1
2018-Feb-20 18:58N 34°40' E 139°03'712.1
2018-Feb-20 18:26N 34°36' E 138°57'1611.9
2018-Feb-20 17:07N 34°34' E 138°38'1712.7
2018-Feb-20 15:48N 34°33' E 138°18'6010.0
2018-Feb-20 09:48N 34°41' E 137°05'411.9
2018-Feb-20 09:30N 34°42' E 137°10'8 4.1
2018-Feb-20 07:33N 34°43' E 137°19'0 0.0
2018-Feb-20 07:11N 34°43' E 137°19'13 0.9
2018-Feb-19 16:32N 34°34' E 137°09'011.9
2018-Feb-19 16:30N 34°34' E 137°09'5210.9
2018-Feb-19 11:41N 34°34' E 138°13'210.9
2018-Feb-19 11:28N 34°34' E 138°16'510.9
2018-Feb-19 10:58N 34°34' E 138°23'510.9
2018-Feb-19 10:30N 34°34' E 138°29'510.7
2018-Feb-19 09:59N 34°35' E 138°35'511.0
2018-Feb-19 09:30N 34°35' E 138°42'611.5
2018-Feb-19 09:00N 34°35' E 138°49'612.0
2018-Feb-19 08:30N 34°36' E 138°56'612.4
2018-Feb-19 07:59N 34°41' E 139°01'2112.3
2018-Feb-19 06:14N 34°58' E 139°17'310.7
2018-Feb-19 05:58N 34°60' E 139°20'510.4
2018-Feb-19 05:29N 35°02' E 139°25'611.0
2018-Feb-19 04:54N 35°04' E 139°33'511.3
2018-Feb-19 04:30N 35°06' E 139°38'612.0
2018-Feb-19 04:00N 35°09' E 139°44'612.2
2018-Feb-19 03:30N 35°15' E 139°46'612.1
2018-Feb-19 03:00N 35°20' E 139°42'611.3
2018-Feb-19 02:30N 35°26' E 139°45'612.3
2018-Feb-19 02:00N 35°29' E 139°51'611.1
2018-Feb-19 01:30N 35°28' E 139°57'1 2.0
2018-Feb-19 01:00N 35°27' E 139°58'0 0.0
2018-Feb-19 00:22N 35°27' E 139°58'0 0.0
2018-Feb-18 23:58N 35°27' E 139°58'0 0.0
2018-Feb-18 23:28N 35°27' E 139°58'2 4.0
2018-Feb-18 23:00N 35°29' E 139°56'0 0.1
2018-Feb-18 21:49N 35°29' E 139°56'0 0.0
2018-Feb-18 21:28N 35°29' E 139°56'0 0.0
2018-Feb-18 20:37N 35°29' E 139°56'0 2.5
2018-Feb-18 20:30N 35°29' E 139°56'611.1
2018-Feb-18 20:00N 35°27' E 139°49'612.6
2018-Feb-18 19:30N 35°21' E 139°45'611.5
2018-Feb-18 19:01N 35°16' E 139°46'612.2
2018-Feb-18 18:30N 35°10' E 139°46'5012.7
2018-Feb-18 14:34N 34°37' E 138°60'213.4
2018-Feb-18 14:25N 34°36' E 138°58'3312.6
2018-Feb-18 11:47N 34°32' E 138°18'60 9.9
2018-Feb-18 05:43N 34°41' E 137°05'211.5
2018-Feb-18 05:30N 34°42' E 137°08'611.6
2018-Feb-18 05:00N 34°44' E 137°15'4 2.5
2018-Feb-18 03:30N 34°43' E 137°19'0 0.0
2018-Feb-17 21:59N 34°44' E 137°19'12 4.4
2018-Feb-17 19:11N 34°34' E 137°09'211.6
2018-Feb-17 18:59N 34°34' E 137°12'49 9.8
2018-Feb-17 14:02N 34°34' E 138°11'1 8.3
2018-Feb-17 13:52N 34°34' E 138°13'3 8.2
2018-Feb-17 13:30N 34°35' E 138°17'710.0
2018-Feb-17 12:45N 34°38' E 138°24'3 9.2
2018-Feb-17 12:26N 34°39' E 138°28'4 8.7
2018-Feb-17 11:57N 34°39' E 138°33'4 8.2
2018-Feb-17 11:25N 34°38' E 138°38'4 8.1
2018-Feb-17 10:58N 34°37' E 138°42'5 7.2
2018-Feb-17 10:20N 34°35' E 138°47'2 7.2
2018-Feb-17 10:00N 34°35' E 138°50'3 7.0
2018-Feb-17 09:30N 34°36' E 138°54'4 8.5
2018-Feb-17 09:00N 34°38' E 138°59'611.5
2018-Feb-17 08:27N 34°43' E 139°03'1610.9
2018-Feb-17 06:57N 34°57' E 139°14'4 8.8
2018-Feb-17 06:30N 34°59' E 139°18'5 8.5
2018-Feb-17 05:52N 35°02' E 139°24'3 8.7
2018-Feb-17 05:30N 35°03' E 139°27'6 9.2
2018-Feb-17 04:50N 35°05' E 139°34'310.2
2018-Feb-17 04:30N 35°06' E 139°38'510.4
2018-Feb-17 04:00N 35°09' E 139°43'611.5
2018-Feb-17 03:30N 35°14' E 139°46'611.7
2018-Feb-17 03:00N 35°19' E 139°43'611.1
2018-Feb-17 02:30N 35°25' E 139°44'612.0
2018-Feb-17 02:00N 35°28' E 139°50'611.0
2018-Feb-17 01:30N 35°29' E 139°57'2 4.0
2018-Feb-17 01:00N 35°27' E 139°58'0 0.0
2018-Feb-17 00:30N 35°27' E 139°58'0 0.0
2018-Feb-16 23:51N 35°27' E 139°58'0 0.0
2018-Feb-16 23:30N 35°27' E 139°58'2 3.8
2018-Feb-16 23:00N 35°28' E 139°56'0 0.1
2018-Feb-16 21:49N 35°28' E 139°56'3 8.7
2018-Feb-16 21:30N 35°29' E 139°53'612.5
2018-Feb-16 21:01N 35°25' E 139°47'612.2
2018-Feb-16 20:30N 35°19' E 139°44'611.8
2018-Feb-16 20:00N 35°13' E 139°47'5112.7
2018-Feb-16 16:01N 34°38' E 139°02'212.9
2018-Feb-16 15:51N 34°37' E 138°60'3412.9
2018-Feb-16 13:12N 34°33' E 138°19'313.5
2018-Feb-16 12:56N 34°33' E 138°14'6211.0
2018-Feb-16 07:19N 34°38' E 136°59'611.5
2018-Feb-16 06:46N 34°41' E 137°06'311.9
2018-Feb-16 06:30N 34°43' E 137°09'8 6.7
2018-Feb-16 05:18N 34°43' E 137°19'0 0.0
2018-Feb-16 04:54N 34°43' E 137°19'  
Track history (hours):
 
Tides and Currents Weather Stations Pressure Air Temp Water Temp Dewpoint Dewpoint Depression Visibility Wind Speed Wind Dir Waves Ship Positions

Hokusei Maru

Last reported at 2018-Feb-25 05:10 UTC. Time now 2018-Feb-25 09:57 UTC.
Position N 34°43' E 137°11'.

Length 83 m; draft 4.6 m.

Type: Cargo ship. MMSI: 431003032.

Date/timePositionNaut miles runAvg speedWind from/ knotsBaromVisibWave heightAir tempDewpointWater temp
2018-Feb-25 05:10N 34°43' E 137°11'312.2
2018-Feb-25 04:54N 34°44' E 137°15'5 0.6
2018-Feb-24 20:59N 34°42' E 137°09'9 8.0
2018-Feb-24 19:49N 34°38' E 136°59'5 9.6
2018-Feb-24 19:17N 34°33' E 137°02'611.1
2018-Feb-24 18:42N 34°34' E 137°10'311.6
2018-Feb-24 18:29N 34°34' E 137°13'4811.0
2018-Feb-24 14:04N 34°33' E 138°11'210.4
2018-Feb-24 13:54N 34°33' E 138°13'410.7
2018-Feb-24 13:30N 34°33' E 138°19'711.1
2018-Feb-24 12:50N 34°34' E 138°27'410.9
2018-Feb-24 12:27N 34°35' E 138°33'510.3
2018-Feb-24 12:00N 34°36' E 138°38'6 9.2
2018-Feb-24 11:23N 34°36' E 138°45'3 8.2
2018-Feb-24 11:00N 34°35' E 138°49'4 7.4
2018-Feb-24 10:30N 34°36' E 138°53'5 8.7
2018-Feb-24 09:56N 34°38' E 138°59'610.6
2018-Feb-24 09:20N 34°43' E 139°03'511.2
2018-Feb-24 08:53N 34°47' E 139°06'1510.5
2018-Feb-24 07:30N 34°59' E 139°18'6 9.7
2018-Feb-24 06:54N 35°01' E 139°24'4 9.9
2018-Feb-24 06:29N 35°03' E 139°29'510.3
2018-Feb-24 06:00N 35°05' E 139°34'611.2
2018-Feb-24 05:30N 35°07' E 139°40'611.0
2018-Feb-24 04:59N 35°11' E 139°45'511.2
2018-Feb-24 04:29N 35°17' E 139°45'611.6
2018-Feb-24 04:01N 35°22' E 139°42'510.8
2018-Feb-24 03:30N 35°26' E 139°46'611.6
2018-Feb-24 03:00N 35°30' E 139°52'4 2.8
2018-Feb-24 01:32N 35°28' E 139°57'0 0.7
2018-Feb-24 01:30N 35°28' E 139°57'1 2.2
2018-Feb-24 00:50N 35°27' E 139°58'0 0.0
2018-Feb-24 00:20N 35°27' E 139°58'0 0.0
2018-Feb-23 23:59N 35°27' E 139°58'0 0.0
2018-Feb-23 23:26N 35°27' E 139°58'2 3.7
2018-Feb-23 23:00N 35°28' E 139°57'0 0.5
2018-Feb-23 22:21N 35°28' E 139°56'0 0.0
2018-Feb-23 22:00N 35°28' E 139°56'5 9.7
2018-Feb-23 21:30N 35°27' E 139°51'612.4
2018-Feb-23 21:00N 35°23' E 139°46'611.4
2018-Feb-23 20:30N 35°17' E 139°45'611.5
2018-Feb-23 20:01N 35°11' E 139°46'612.3
2018-Feb-23 19:30N 35°06' E 139°42'611.9
2018-Feb-23 19:00N 35°02' E 139°37'610.8
2018-Feb-23 18:29N 34°57' E 139°33'1912.1
2018-Feb-23 16:55N 34°46' E 139°14'1511.9
2018-Feb-23 15:41N 34°37' E 138°60'311.3
2018-Feb-23 15:27N 34°36' E 138°57'9110.3
2018-Feb-23 06:37N 34°41' E 137°07'212.0
2018-Feb-23 06:30N 34°42' E 137°09'9 9.1
2018-Feb-23 05:33N 34°43' E 137°19'0 0.0
2018-Feb-23 05:29N 34°43' E 137°19'12 0.9
2018-Feb-22 15:55N 34°34' E 137°10'4811.2
2018-Feb-22 11:41N 34°34' E 138°08'311.2
2018-Feb-22 11:27N 34°34' E 138°11'1111.9
2018-Feb-22 10:30N 34°34' E 138°25'611.9
2018-Feb-22 10:00N 34°35' E 138°32'612.5
2018-Feb-22 09:30N 34°35' E 138°39'712.5
2018-Feb-22 08:59N 34°35' E 138°47'611.7
2018-Feb-22 08:31N 34°36' E 138°54'811.9
2018-Feb-22 07:52N 34°41' E 139°01'512.4
2018-Feb-22 07:29N 34°45' E 139°04'1711.4
2018-Feb-22 06:01N 34°58' E 139°16'111.2
2018-Feb-22 05:57N 34°59' E 139°17'611.6
2018-Feb-22 05:28N 35°01' E 139°23'611.6
2018-Feb-22 04:57N 35°04' E 139°30'512.2
2018-Feb-22 04:30N 35°06' E 139°36'612.6
2018-Feb-22 04:00N 35°08' E 139°43'612.1
2018-Feb-22 03:31N 35°14' E 139°46'612.4
2018-Feb-22 03:00N 35°19' E 139°43'611.3
2018-Feb-22 02:30N 35°25' E 139°44'612.2
2018-Feb-22 02:00N 35°28' E 139°50'611.1
2018-Feb-22 01:31N 35°29' E 139°57'2 3.5
2018-Feb-22 00:59N 35°27' E 139°58'0 0.0
2018-Feb-22 00:28N 35°27' E 139°58'0 0.0
2018-Feb-21 23:58N 35°27' E 139°58'0 0.0
2018-Feb-21 23:28N 35°27' E 139°58'2 4.8
2018-Feb-21 23:01N 35°28' E 139°56'0 0.1
2018-Feb-21 22:20N 35°28' E 139°56'0 0.1
2018-Feb-21 21:56N 35°28' E 139°56'0 0.1
2018-Feb-21 21:05N 35°28' E 139°56'0 0.0
2018-Feb-21 20:55N 35°28' E 139°56'0 0.1
2018-Feb-21 20:19N 35°28' E 139°56'0 0.0
2018-Feb-21 19:49N 35°28' E 139°56'0 0.0
2018-Feb-21 19:25N 35°28' E 139°56'0 0.0
2018-Feb-21 18:04N 35°28' E 139°56'0 0.0
2018-Feb-21 17:55N 35°28' E 139°56'0 0.0
2018-Feb-21 17:28N 35°28' E 139°56'0 0.0
2018-Feb-21 16:58N 35°28' E 139°56'0 0.0
2018-Feb-21 16:28N 35°28' E 139°56'0 0.1
2018-Feb-21 15:58N 35°28' E 139°56'0 0.0
2018-Feb-21 15:28N 35°28' E 139°56'0 0.0
2018-Feb-21 14:52N 35°28' E 139°56'0 0.0
2018-Feb-21 14:19N 35°28' E 139°56'0 0.0
2018-Feb-21 13:58N 35°28' E 139°56'0 0.0
2018-Feb-21 13:28N 35°28' E 139°56'0 0.0
2018-Feb-21 12:58N 35°28' E 139°56'0 0.0
2018-Feb-21 12:19N 35°28' E 139°56'0 0.0
2018-Feb-21 11:49N 35°28' E 139°56'0 0.0
2018-Feb-21 11:16N 35°28' E 139°56'0 0.0
2018-Feb-21 10:58N 35°28' E 139°56'0 0.0
2018-Feb-21 10:28N 35°28' E 139°56'0 0.0
2018-Feb-21 09:58N 35°28' E 139°56'0 0.0
2018-Feb-21 09:25N 35°28' E 139°56'0 0.0
2018-Feb-21 08:52N 35°28' E 139°56'0 0.1
2018-Feb-21 08:22N 35°28' E 139°56'0 0.1
2018-Feb-21 07:55N 35°28' E 139°56'0 0.1
2018-Feb-21 07:19N 35°28' E 139°56'0 0.1
2018-Feb-21 06:46N 35°28' E 139°56'0 0.0
2018-Feb-21 04:34N 35°28' E 139°56'0 0.0
2018-Feb-21 04:04N 35°28' E 139°56'0 0.0
2018-Feb-21 03:37N 35°28' E 139°56'0 0.0
2018-Feb-21 03:22N 35°28' E 139°56'0 0.0
2018-Feb-21 02:04N 35°28' E 139°56'0 0.0
2018-Feb-21 01:55N 35°28' E 139°56'0 0.0
2018-Feb-21 01:26N 35°28' E 139°56'4 8.4
2018-Feb-21 00:59N 35°28' E 139°51'611.9
2018-Feb-21 00:30N 35°24' E 139°46'611.3
2018-Feb-21 00:00N 35°18' E 139°44'611.7
2018-Feb-20 23:29N 35°13' E 139°47'611.5
2018-Feb-20 22:59N 35°07' E 139°44'4010.9
2018-Feb-20 19:17N 34°42' E 139°06'311.1
2018-Feb-20 18:58N 34°40' E 139°03'712.1
2018-Feb-20 18:26N 34°36' E 138°57'1611.9
2018-Feb-20 17:07N 34°34' E 138°38'1712.7
2018-Feb-20 15:48N 34°33' E 138°18'6010.0
2018-Feb-20 09:48N 34°41' E 137°05'411.9
2018-Feb-20 09:30N 34°42' E 137°10'8 4.1
2018-Feb-20 07:33N 34°43' E 137°19'0 0.0
2018-Feb-20 07:11N 34°43' E 137°19'13 0.9
2018-Feb-19 16:32N 34°34' E 137°09'011.9
2018-Feb-19 16:30N 34°34' E 137°09'5210.9
2018-Feb-19 11:41N 34°34' E 138°13'210.9
2018-Feb-19 11:28N 34°34' E 138°16'510.9
2018-Feb-19 10:58N 34°34' E 138°23'510.9
2018-Feb-19 10:30N 34°34' E 138°29'510.7
2018-Feb-19 09:59N 34°35' E 138°35'511.0
2018-Feb-19 09:30N 34°35' E 138°42'611.5
2018-Feb-19 09:00N 34°35' E 138°49'612.0
2018-Feb-19 08:30N 34°36' E 138°56'612.4
2018-Feb-19 07:59N 34°41' E 139°01'2112.3
2018-Feb-19 06:14N 34°58' E 139°17'310.7
2018-Feb-19 05:58N 34°60' E 139°20'510.4
2018-Feb-19 05:29N 35°02' E 139°25'611.0
2018-Feb-19 04:54N 35°04' E 139°33'511.3
2018-Feb-19 04:30N 35°06' E 139°38'612.0
2018-Feb-19 04:00N 35°09' E 139°44'612.2
2018-Feb-19 03:30N 35°15' E 139°46'612.1
2018-Feb-19 03:00N 35°20' E 139°42'611.3
2018-Feb-19 02:30N 35°26' E 139°45'612.3
2018-Feb-19 02:00N 35°29' E 139°51'611.1
2018-Feb-19 01:30N 35°28' E 139°57'1 2.0
2018-Feb-19 01:00N 35°27' E 139°58'0 0.0
2018-Feb-19 00:22N 35°27' E 139°58'0 0.0
2018-Feb-18 23:58N 35°27' E 139°58'0 0.0
2018-Feb-18 23:28N 35°27' E 139°58'2 4.0
2018-Feb-18 23:00N 35°29' E 139°56'0 0.1
2018-Feb-18 21:49N 35°29' E 139°56'0 0.0
2018-Feb-18 21:28N 35°29' E 139°56'0 0.0
2018-Feb-18 20:37N 35°29' E 139°56'0 2.5
2018-Feb-18 20:30N 35°29' E 139°56'611.1
2018-Feb-18 20:00N 35°27' E 139°49'612.6
2018-Feb-18 19:30N 35°21' E 139°45'611.5
2018-Feb-18 19:01N 35°16' E 139°46'612.2
2018-Feb-18 18:30N 35°10' E 139°46'5012.7
2018-Feb-18 14:34N 34°37' E 138°60'213.4
2018-Feb-18 14:25N 34°36' E 138°58'3312.6
2018-Feb-18 11:47N 34°32' E 138°18'60 9.9
2018-Feb-18 05:43N 34°41' E 137°05'211.5
2018-Feb-18 05:30N 34°42' E 137°08'611.6
2018-Feb-18 05:00N 34°44' E 137°15'4 2.5
2018-Feb-18 03:30N 34°43' E 137°19'0 0.0
2018-Feb-17 21:59N 34°44' E 137°19'12 4.4
2018-Feb-17 19:11N 34°34' E 137°09'211.6
2018-Feb-17 18:59N 34°34' E 137°12'49 9.8
2018-Feb-17 14:02N 34°34' E 138°11'1 8.3
2018-Feb-17 13:52N 34°34' E 138°13'3 8.2
2018-Feb-17 13:30N 34°35' E 138°17'710.0
2018-Feb-17 12:45N 34°38' E 138°24'3 9.2
2018-Feb-17 12:26N 34°39' E 138°28'4 8.7
2018-Feb-17 11:57N 34°39' E 138°33'4 8.2
2018-Feb-17 11:25N 34°38' E 138°38'4 8.1
2018-Feb-17 10:58N 34°37' E 138°42'5 7.2
2018-Feb-17 10:20N 34°35' E 138°47'2 7.2
2018-Feb-17 10:00N 34°35' E 138°50'3 7.0
2018-Feb-17 09:30N 34°36' E 138°54'4 8.5
2018-Feb-17 09:00N 34°38' E 138°59'611.5
2018-Feb-17 08:27N 34°43' E 139°03'1610.9
2018-Feb-17 06:57N 34°57' E 139°14'4 8.8
2018-Feb-17 06:30N 34°59' E 139°18'5 8.5
2018-Feb-17 05:52N 35°02' E 139°24'3 8.7
2018-Feb-17 05:30N 35°03' E 139°27'6 9.2
2018-Feb-17 04:50N 35°05' E 139°34'310.2
2018-Feb-17 04:30N 35°06' E 139°38'510.4
2018-Feb-17 04:00N 35°09' E 139°43'611.5
2018-Feb-17 03:30N 35°14' E 139°46'611.7
2018-Feb-17 03:00N 35°19' E 139°43'611.1
2018-Feb-17 02:30N 35°25' E 139°44'612.0
2018-Feb-17 02:00N 35°28' E 139°50'611.0
2018-Feb-17 01:30N 35°29' E 139°57'2 4.0
2018-Feb-17 01:00N 35°27' E 139°58'0 0.0
2018-Feb-17 00:30N 35°27' E 139°58'0 0.0
2018-Feb-16 23:51N 35°27' E 139°58'0 0.0
2018-Feb-16 23:30N 35°27' E 139°58'2 3.8
2018-Feb-16 23:00N 35°28' E 139°56'0 0.1
2018-Feb-16 21:49N 35°28' E 139°56'3 8.7
2018-Feb-16 21:30N 35°29' E 139°53'612.5
2018-Feb-16 21:01N 35°25' E 139°47'612.2
2018-Feb-16 20:30N 35°19' E 139°44'611.8
2018-Feb-16 20:00N 35°13' E 139°47'5112.7
2018-Feb-16 16:01N 34°38' E 139°02'212.9
2018-Feb-16 15:51N 34°37' E 138°60'3412.9
2018-Feb-16 13:12N 34°33' E 138°19'313.5
2018-Feb-16 12:56N 34°33' E 138°14'6211.0
2018-Feb-16 07:19N 34°38' E 136°59'611.5
2018-Feb-16 06:46N 34°41' E 137°06'311.9
2018-Feb-16 06:30N 34°43' E 137°09'8 6.7
2018-Feb-16 05:18N 34°43' E 137°19'0 0.0
2018-Feb-16 04:54N 34°43' E 137°19'  

Dump ship's entire track history